sensor_id;sensor_type;location;lat;lon;timestamp;temperature;humidity
17092;DHT22;8661;45.700;4.880;2023-05-21T00:01:54;16.60;99.90
17092;DHT22;8661;45.700;4.880;2023-05-21T00:04:21;16.60;99.90
17092;DHT22;8661;45.700;4.880;2023-05-21T00:06:49;16.50;99.90
17092;DHT22;8661;45.700;4.880;2023-05-21T00:09:16;16.50;99.90
17092;DHT22;8661;45.700;4.880;2023-05-21T00:11:43;16.50;99.90
17092;DHT22;8661;45.700;4.880;2023-05-21T00:14:11;16.40;99.90
17092;DHT22;8661;45.700;4.880;2023-05-21T00:16:38;16.40;99.90
17092;DHT22;8661;45.700;4.880;2023-05-21T00:19:05;16.40;99.90
17092;DHT22;8661;45.700;4.880;2023-05-21T00:21:32;16.40;99.90
17092;DHT22;8661;45.700;4.880;2023-05-21T00:23:59;16.40;99.90
17092;DHT22;8661;45.700;4.880;2023-05-21T00:26:26;16.40;99.90
17092;DHT22;8661;45.700;4.880;2023-05-21T00:28:53;16.30;99.90
17092;DHT22;8661;45.700;4.880;2023-05-21T00:31:21;16.30;99.90
17092;DHT22;8661;45.700;4.880;2023-05-21T00:33:48;16.30;99.90
17092;DHT22;8661;45.700;4.880;2023-05-21T00:36:15;16.30;99.90
17092;DHT22;8661;45.700;4.880;2023-05-21T00:38:42;16.30;99.90
17092;DHT22;8661;45.700;4.880;2023-05-21T00:41:10;16.30;99.90
17092;DHT22;8661;45.700;4.880;2023-05-21T00:43:37;16.30;99.90
17092;DHT22;8661;45.700;4.880;2023-05-21T00:46:05;16.30;99.90
17092;DHT22;8661;45.700;4.880;2023-05-21T00:48:34;16.30;99.90
17092;DHT22;8661;45.700;4.880;2023-05-21T00:51:01;16.30;99.90
17092;DHT22;8661;45.700;4.880;2023-05-21T00:53:28;16.30;99.90
17092;DHT22;8661;45.700;4.880;2023-05-21T00:55:56;16.30;99.90
17092;DHT22;8661;45.700;4.880;2023-05-21T00:58:23;16.20;99.90
17092;DHT22;8661;45.700;4.880;2023-05-21T01:00:50;16.30;99.90
17092;DHT22;8661;45.700;4.880;2023-05-21T01:03:21;16.30;99.90
17092;DHT22;8661;45.700;4.880;2023-05-21T01:05:49;16.30;99.90
17092;DHT22;8661;45.700;4.880;2023-05-21T01:08:17;16.20;99.90
17092;DHT22;8661;45.700;4.880;2023-05-21T01:10:45;16.20;99.90
17092;DHT22;8661;45.700;4.880;2023-05-21T01:13:12;16.20;99.90
17092;DHT22;8661;45.700;4.880;2023-05-21T01:15:41;16.20;99.90
17092;DHT22;8661;45.700;4.880;2023-05-21T01:18:08;16.20;99.90
17092;DHT22;8661;45.700;4.880;2023-05-21T01:20:36;16.20;99.90
17092;DHT22;8661;45.700;4.880;2023-05-21T01:23:05;16.20;99.90
17092;DHT22;8661;45.700;4.880;2023-05-21T01:25:32;16.10;99.90
17092;DHT22;8661;45.700;4.880;2023-05-21T01:28:00;16.10;99.90
17092;DHT22;8661;45.700;4.880;2023-05-21T01:30:27;16.20;99.90
17092;DHT22;8661;45.700;4.880;2023-05-21T01:32:59;16.10;99.90
17092;DHT22;8661;45.700;4.880;2023-05-21T01:35:29;16.10;99.90
17092;DHT22;8661;45.700;4.880;2023-05-21T01:38:06;16.00;99.90
17092;DHT22;8661;45.700;4.880;2023-05-21T01:40:38;16.00;99.90
17092;DHT22;8661;45.700;4.880;2023-05-21T01:43:07;16.10;99.90
17092;DHT22;8661;45.700;4.880;2023-05-21T01:45:36;16.00;99.90
17092;DHT22;8661;45.700;4.880;2023-05-21T01:48:06;16.00;99.90
17092;DHT22;8661;45.700;4.880;2023-05-21T01:50:34;16.00;99.90
17092;DHT22;8661;45.700;4.880;2023-05-21T01:53:03;16.00;99.90
17092;DHT22;8661;45.700;4.880;2023-05-21T01:55:32;16.00;99.90
17092;DHT22;8661;45.700;4.880;2023-05-21T01:58:00;16.00;99.90
17092;DHT22;8661;45.700;4.880;2023-05-21T02:00:26;15.90;99.90
17092;DHT22;8661;45.700;4.880;2023-05-21T02:02:54;15.90;99.90
17092;DHT22;8661;45.700;4.880;2023-05-21T02:05:20;15.90;99.90
17092;DHT22;8661;45.700;4.880;2023-05-21T02:07:50;15.80;99.90
17092;DHT22;8661;45.700;4.880;2023-05-21T02:10:34;15.80;99.90
17092;DHT22;8661;45.700;4.880;2023-05-21T02:13:01;15.70;99.90
17092;DHT22;8661;45.700;4.880;2023-05-21T02:15:28;15.60;99.90
17092;DHT22;8661;45.700;4.880;2023-05-21T02:17:55;15.60;99.90
17092;DHT22;8661;45.700;4.880;2023-05-21T02:20:25;15.60;99.90
17092;DHT22;8661;45.700;4.880;2023-05-21T02:22:52;15.50;99.90
17092;DHT22;8661;45.700;4.880;2023-05-21T02:25:20;15.50;99.90
17092;DHT22;8661;45.700;4.880;2023-05-21T02:27:48;15.40;99.90
17092;DHT22;8661;45.700;4.880;2023-05-21T02:30:18;15.40;99.90
17092;DHT22;8661;45.700;4.880;2023-05-21T02:32:45;15.40;99.90
17092;DHT22;8661;45.700;4.880;2023-05-21T02:35:13;15.30;99.90
17092;DHT22;8661;45.700;4.880;2023-05-21T02:37:40;15.30;99.90
17092;DHT22;8661;45.700;4.880;2023-05-21T02:40:08;15.20;99.90
17092;DHT22;8661;45.700;4.880;2023-05-21T02:42:36;15.20;99.90
17092;DHT22;8661;45.700;4.880;2023-05-21T02:45:06;15.10;99.90
17092;DHT22;8661;45.700;4.880;2023-05-21T02:47:33;15.10;99.90
17092;DHT22;8661;45.700;4.880;2023-05-21T02:50:00;15.00;99.90
17092;DHT22;8661;45.700;4.880;2023-05-21T02:52:27;15.00;99.90
17092;DHT22;8661;45.700;4.880;2023-05-21T02:54:54;14.90;99.90
17092;DHT22;8661;45.700;4.880;2023-05-21T02:57:21;15.00;99.90
17092;DHT22;8661;45.700;4.880;2023-05-21T02:59:48;15.00;99.90
17092;DHT22;8661;45.700;4.880;2023-05-21T03:02:17;15.00;99.90
17092;DHT22;8661;45.700;4.880;2023-05-21T03:04:43;14.90;99.90
17092;DHT22;8661;45.700;4.880;2023-05-21T03:07:11;14.90;99.90
17092;DHT22;8661;45.700;4.880;2023-05-21T03:09:39;14.80;99.90
17092;DHT22;8661;45.700;4.880;2023-05-21T03:12:07;14.80;99.90
17092;DHT22;8661;45.700;4.880;2023-05-21T03:14:34;14.80;99.90
17092;DHT22;8661;45.700;4.880;2023-05-21T03:17:01;14.70;99.90
17092;DHT22;8661;45.700;4.880;2023-05-21T03:19:31;14.70;99.90
17092;DHT22;8661;45.700;4.880;2023-05-21T03:22:00;14.70;99.90
17092;DHT22;8661;45.700;4.880;2023-05-21T03:24:27;14.60;99.90
17092;DHT22;8661;45.700;4.880;2023-05-21T03:26:55;14.70;99.90
17092;DHT22;8661;45.700;4.880;2023-05-21T03:29:21;14.60;99.90
17092;DHT22;8661;45.700;4.880;2023-05-21T03:31:48;14.60;99.90
17092;DHT22;8661;45.700;4.880;2023-05-21T03:34:16;14.70;99.90
17092;DHT22;8661;45.700;4.880;2023-05-21T03:36:45;14.60;99.90
17092;DHT22;8661;45.700;4.880;2023-05-21T03:39:12;14.60;99.90
17092;DHT22;8661;45.700;4.880;2023-05-21T03:41:39;14.60;99.90
17092;DHT22;8661;45.700;4.880;2023-05-21T03:44:06;14.60;99.90
17092;DHT22;8661;45.700;4.880;2023-05-21T03:46:33;14.60;99.90
17092;DHT22;8661;45.700;4.880;2023-05-21T03:49:00;14.60;99.90
17092;DHT22;8661;45.700;4.880;2023-05-21T03:51:27;14.60;99.90
17092;DHT22;8661;45.700;4.880;2023-05-21T03:53:58;14.60;99.90
17092;DHT22;8661;45.700;4.880;2023-05-21T03:56:25;14.60;99.90
17092;DHT22;8661;45.700;4.880;2023-05-21T03:58:52;14.60;99.90
17092;DHT22;8661;45.700;4.880;2023-05-21T04:01:19;14.60;99.90
17092;DHT22;8661;45.700;4.880;2023-05-21T04:03:46;14.60;99.90
17092;DHT22;8661;45.700;4.880;2023-05-21T04:06:13;14.60;99.90
17092;DHT22;8661;45.700;4.880;2023-05-21T04:08:40;14.60;99.90
17092;DHT22;8661;45.700;4.880;2023-05-21T04:11:08;14.60;99.90
17092;DHT22;8661;45.700;4.880;2023-05-21T04:13:35;14.60;99.90
17092;DHT22;8661;45.700;4.880;2023-05-21T04:16:02;14.60;99.90
17092;DHT22;8661;45.700;4.880;2023-05-21T04:18:29;14.70;99.90
17092;DHT22;8661;45.700;4.880;2023-05-21T04:20:56;14.70;99.90
17092;DHT22;8661;45.700;4.880;2023-05-21T04:23:24;14.70;99.90
17092;DHT22;8661;45.700;4.880;2023-05-21T04:25:51;14.80;99.90
17092;DHT22;8661;45.700;4.880;2023-05-21T04:28:19;14.80;99.90
17092;DHT22;8661;45.700;4.880;2023-05-21T04:30:48;14.80;99.90
17092;DHT22;8661;45.700;4.880;2023-05-21T04:33:15;14.80;99.90
17092;DHT22;8661;45.700;4.880;2023-05-21T04:35:45;14.80;99.90
17092;DHT22;8661;45.700;4.880;2023-05-21T04:38:14;14.80;99.90
17092;DHT22;8661;45.700;4.880;2023-05-21T04:40:44;14.80;99.90
17092;DHT22;8661;45.700;4.880;2023-05-21T04:43:11;14.80;99.90
17092;DHT22;8661;45.700;4.880;2023-05-21T04:45:39;14.80;99.90
17092;DHT22;8661;45.700;4.880;2023-05-21T04:48:06;14.80;99.90
17092;DHT22;8661;45.700;4.880;2023-05-21T04:50:33;14.80;99.90
17092;DHT22;8661;45.700;4.880;2023-05-21T04:53:00;14.80;99.90
17092;DHT22;8661;45.700;4.880;2023-05-21T04:55:27;14.80;99.90
17092;DHT22;8661;45.700;4.880;2023-05-21T04:57:54;14.90;99.90
17092;DHT22;8661;45.700;4.880;2023-05-21T05:00:21;14.90;99.90
17092;DHT22;8661;45.700;4.880;2023-05-21T05:02:52;14.90;99.90
17092;DHT22;8661;45.700;4.880;2023-05-21T05:05:18;14.90;99.90
17092;DHT22;8661;45.700;4.880;2023-05-21T05:07:45;14.90;99.90
17092;DHT22;8661;45.700;4.880;2023-05-21T05:10:12;14.90;99.90
17092;DHT22;8661;45.700;4.880;2023-05-21T05:12:39;14.90;99.90
17092;DHT22;8661;45.700;4.880;2023-05-21T05:15:07;14.90;99.90
17092;DHT22;8661;45.700;4.880;2023-05-21T05:17:34;15.00;99.90
17092;DHT22;8661;45.700;4.880;2023-05-21T05:20:03;15.00;99.90
17092;DHT22;8661;45.700;4.880;2023-05-21T05:22:30;15.00;99.90
17092;DHT22;8661;45.700;4.880;2023-05-21T05:24:57;15.10;99.90
17092;DHT22;8661;45.700;4.880;2023-05-21T05:27:24;15.10;99.90
17092;DHT22;8661;45.700;4.880;2023-05-21T05:29:54;15.20;99.90
17092;DHT22;8661;45.700;4.880;2023-05-21T05:32:21;15.20;99.90
17092;DHT22;8661;45.700;4.880;2023-05-21T05:34:48;15.30;99.90
17092;DHT22;8661;45.700;4.880;2023-05-21T05:37:16;15.30;99.90
17092;DHT22;8661;45.700;4.880;2023-05-21T05:39:43;15.30;99.90
17092;DHT22;8661;45.700;4.880;2023-05-21T05:42:10;15.40;99.90
17092;DHT22;8661;45.700;4.880;2023-05-21T05:44:37;15.50;99.90
17092;DHT22;8661;45.700;4.880;2023-05-21T05:47:04;15.50;99.90
17092;DHT22;8661;45.700;4.880;2023-05-21T05:49:35;15.50;99.90
17092;DHT22;8661;45.700;4.880;2023-05-21T05:52:02;15.60;99.90
17092;DHT22;8661;45.700;4.880;2023-05-21T05:54:30;15.50;99.90
17092;DHT22;8661;45.700;4.880;2023-05-21T05:56:57;15.60;99.90
17092;DHT22;8661;45.700;4.880;2023-05-21T05:59:24;15.60;99.90
17092;DHT22;8661;45.700;4.880;2023-05-21T06:01:50;15.70;99.90
17092;DHT22;8661;45.700;4.880;2023-05-21T06:04:17;15.70;99.90
17092;DHT22;8661;45.700;4.880;2023-05-21T06:06:44;15.80;99.90
17092;DHT22;8661;45.700;4.880;2023-05-21T06:09:11;15.80;99.90
17092;DHT22;8661;45.700;4.880;2023-05-21T06:11:40;15.90;99.90
17092;DHT22;8661;45.700;4.880;2023-05-21T06:14:06;15.90;99.90
17092;DHT22;8661;45.700;4.880;2023-05-21T06:16:33;15.90;99.90
17092;DHT22;8661;45.700;4.880;2023-05-21T06:19:01;16.00;99.90
17092;DHT22;8661;45.700;4.880;2023-05-21T06:21:28;16.00;99.90
17092;DHT22;8661;45.700;4.880;2023-05-21T06:23:55;16.10;99.90
17092;DHT22;8661;45.700;4.880;2023-05-21T06:26:22;16.10;99.90
17092;DHT22;8661;45.700;4.880;2023-05-21T06:28:50;16.20;99.90
17092;DHT22;8661;45.700;4.880;2023-05-21T06:31:17;16.30;99.90
17092;DHT22;8661;45.700;4.880;2023-05-21T06:33:46;16.30;99.90
17092;DHT22;8661;45.700;4.880;2023-05-21T06:36:14;16.40;99.90
17092;DHT22;8661;45.700;4.880;2023-05-21T06:38:41;16.50;99.90
17092;DHT22;8661;45.700;4.880;2023-05-21T06:41:08;16.50;99.90
17092;DHT22;8661;45.700;4.880;2023-05-21T06:43:35;16.60;99.90
17092;DHT22;8661;45.700;4.880;2023-05-21T06:46:03;16.70;99.90
17092;DHT22;8661;45.700;4.880;2023-05-21T06:48:30;16.80;99.90
17092;DHT22;8661;45.700;4.880;2023-05-21T06:50:57;16.90;99.90
17092;DHT22;8661;45.700;4.880;2023-05-21T06:53:24;17.00;99.90
17092;DHT22;8661;45.700;4.880;2023-05-21T06:55:51;17.10;99.90
17092;DHT22;8661;45.700;4.880;2023-05-21T06:58:18;17.10;99.90
17092;DHT22;8661;45.700;4.880;2023-05-21T07:00:46;17.30;99.90
17092;DHT22;8661;45.700;4.880;2023-05-21T07:03:14;17.40;99.90
17092;DHT22;8661;45.700;4.880;2023-05-21T07:05:41;17.50;99.90
17092;DHT22;8661;45.700;4.880;2023-05-21T07:08:08;17.70;99.90
17092;DHT22;8661;45.700;4.880;2023-05-21T07:10:35;17.80;99.90
17092;DHT22;8661;45.700;4.880;2023-05-21T07:13:02;18.00;99.90
17092;DHT22;8661;45.700;4.880;2023-05-21T07:15:29;18.10;99.90
17092;DHT22;8661;45.700;4.880;2023-05-21T07:17:56;18.20;99.90
17092;DHT22;8661;45.700;4.880;2023-05-21T07:20:24;18.30;99.90
17092;DHT22;8661;45.700;4.880;2023-05-21T07:22:51;18.50;99.90
17092;DHT22;8661;45.700;4.880;2023-05-21T07:25:17;18.60;99.90
17092;DHT22;8661;45.700;4.880;2023-05-21T07:27:44;18.70;99.90
17092;DHT22;8661;45.700;4.880;2023-05-21T07:30:12;18.70;99.90
17092;DHT22;8661;45.700;4.880;2023-05-21T07:32:39;18.90;99.90
17092;DHT22;8661;45.700;4.880;2023-05-21T07:35:06;19.00;99.90
17092;DHT22;8661;45.700;4.880;2023-05-21T07:37:35;19.20;99.90
17092;DHT22;8661;45.700;4.880;2023-05-21T07:40:02;19.40;99.90
17092;DHT22;8661;45.700;4.880;2023-05-21T07:42:30;19.40;99.90
17092;DHT22;8661;45.700;4.880;2023-05-21T07:44:57;19.60;99.90
17092;DHT22;8661;45.700;4.880;2023-05-21T07:47:24;19.70;99.90
17092;DHT22;8661;45.700;4.880;2023-05-21T07:49:51;19.80;99.90
17092;DHT22;8661;45.700;4.880;2023-05-21T07:52:18;20.00;99.90
17092;DHT22;8661;45.700;4.880;2023-05-21T07:54:46;20.10;99.90
17092;DHT22;8661;45.700;4.880;2023-05-21T07:57:13;20.10;99.90
17092;DHT22;8661;45.700;4.880;2023-05-21T07:59:40;20.20;99.90
17092;DHT22;8661;45.700;4.880;2023-05-21T08:02:07;20.30;99.90
17092;DHT22;8661;45.700;4.880;2023-05-21T08:04:34;20.30;99.90
17092;DHT22;8661;45.700;4.880;2023-05-21T08:07:01;20.30;99.90
17092;DHT22;8661;45.700;4.880;2023-05-21T08:09:28;20.30;99.90
17092;DHT22;8661;45.700;4.880;2023-05-21T08:11:58;20.30;99.90
17092;DHT22;8661;45.700;4.880;2023-05-21T08:14:24;20.40;99.90
17092;DHT22;8661;45.700;4.880;2023-05-21T08:16:51;20.50;99.90
17092;DHT22;8661;45.700;4.880;2023-05-21T08:19:18;20.50;99.90
17092;DHT22;8661;45.700;4.880;2023-05-21T08:21:45;20.60;99.90
17092;DHT22;8661;45.700;4.880;2023-05-21T08:24:14;20.60;99.90
17092;DHT22;8661;45.700;4.880;2023-05-21T08:26:41;20.70;99.90
17092;DHT22;8661;45.700;4.880;2023-05-21T08:29:10;20.80;99.90
17092;DHT22;8661;45.700;4.880;2023-05-21T08:31:37;20.80;99.90
17092;DHT22;8661;45.700;4.880;2023-05-21T08:34:05;20.90;99.90
17092;DHT22;8661;45.700;4.880;2023-05-21T08:36:32;21.00;99.90
17092;DHT22;8661;45.700;4.880;2023-05-21T08:38:59;21.10;99.90
17092;DHT22;8661;45.700;4.880;2023-05-21T08:41:26;21.10;99.90
17092;DHT22;8661;45.700;4.880;2023-05-21T08:43:55;21.30;99.90
17092;DHT22;8661;45.700;4.880;2023-05-21T08:46:24;21.50;99.90
17092;DHT22;8661;45.700;4.880;2023-05-21T08:48:54;21.60;99.90
17092;DHT22;8661;45.700;4.880;2023-05-21T08:51:21;21.80;99.90
17092;DHT22;8661;45.700;4.880;2023-05-21T08:53:49;22.00;99.90
17092;DHT22;8661;45.700;4.880;2023-05-21T08:56:16;22.30;99.90
17092;DHT22;8661;45.700;4.880;2023-05-21T08:58:45;22.50;99.90
17092;DHT22;8661;45.700;4.880;2023-05-21T09:01:12;22.90;99.90
17092;DHT22;8661;45.700;4.880;2023-05-21T09:03:41;23.20;99.90
17092;DHT22;8661;45.700;4.880;2023-05-21T09:06:10;23.50;99.90
17092;DHT22;8661;45.700;4.880;2023-05-21T09:08:42;23.80;99.90
17092;DHT22;8661;45.700;4.880;2023-05-21T09:11:10;24.20;99.90
17092;DHT22;8661;45.700;4.880;2023-05-21T09:13:40;24.60;99.90
17092;DHT22;8661;45.700;4.880;2023-05-21T09:16:09;24.50;99.90
17092;DHT22;8661;45.700;4.880;2023-05-21T09:18:36;24.40;99.90
17092;DHT22;8661;45.700;4.880;2023-05-21T09:21:22;24.60;99.90
17092;DHT22;8661;45.700;4.880;2023-05-21T09:23:53;24.40;99.90
17092;DHT22;8661;45.700;4.880;2023-05-21T09:26:20;24.20;99.90
17092;DHT22;8661;45.700;4.880;2023-05-21T09:28:47;24.40;99.90
17092;DHT22;8661;45.700;4.880;2023-05-21T09:31:14;24.60;99.90
17092;DHT22;8661;45.700;4.880;2023-05-21T09:33:45;24.60;99.90
17092;DHT22;8661;45.700;4.880;2023-05-21T09:36:14;24.60;99.40
17092;DHT22;8661;45.700;4.880;2023-05-21T09:38:44;24.60;99.00
17092;DHT22;8661;45.700;4.880;2023-05-21T09:41:12;24.50;98.60
17092;DHT22;8661;45.700;4.880;2023-05-21T09:43:41;24.40;98.70
17092;DHT22;8661;45.700;4.880;2023-05-21T09:46:08;24.30;99.00
17092;DHT22;8661;45.700;4.880;2023-05-21T09:48:36;24.10;99.30
17092;DHT22;8661;45.700;4.880;2023-05-21T09:51:14;24.20;98.90
17092;DHT22;8661;45.700;4.880;2023-05-21T09:53:48;23.90;98.60
17092;DHT22;8661;45.700;4.880;2023-05-21T09:56:17;23.90;99.60
17092;DHT22;8661;45.700;4.880;2023-05-21T09:58:47;24.00;99.10
17092;DHT22;8661;45.700;4.880;2023-05-21T10:01:14;24.00;99.10
17092;DHT22;8661;45.700;4.880;2023-05-21T10:03:41;24.30;99.00
17092;DHT22;8661;45.700;4.880;2023-05-21T10:06:12;24.50;98.70
17092;DHT22;8661;45.700;4.880;2023-05-21T10:08:44;24.70;97.80
17092;DHT22;8661;45.700;4.880;2023-05-21T10:11:14;24.50;97.40
17092;DHT22;8661;45.700;4.880;2023-05-21T10:13:45;24.60;97.60
17092;DHT22;8661;45.700;4.880;2023-05-21T10:16:14;24.90;96.40
17092;DHT22;8661;45.700;4.880;2023-05-21T10:18:41;25.30;95.50
17092;DHT22;8661;45.700;4.880;2023-05-21T10:21:11;25.50;94.90
17092;DHT22;8661;45.700;4.880;2023-05-21T10:23:40;26.30;94.10
17092;DHT22;8661;45.700;4.880;2023-05-21T10:26:09;27.00;93.20
17092;DHT22;8661;45.700;4.880;2023-05-21T10:28:37;27.40;91.70
17092;DHT22;8661;45.700;4.880;2023-05-21T10:31:04;27.60;91.10
17092;DHT22;8661;45.700;4.880;2023-05-21T10:33:31;27.70;90.60
17092;DHT22;8661;45.700;4.880;2023-05-21T10:36:01;28.10;89.60
17092;DHT22;8661;45.700;4.880;2023-05-21T10:38:28;28.10;88.80
17092;DHT22;8661;45.700;4.880;2023-05-21T10:40:57;27.50;88.80
17092;DHT22;8661;45.700;4.880;2023-05-21T10:43:37;27.20;89.40
17092;DHT22;8661;45.700;4.880;2023-05-21T10:49:22;26.50;90.10
17092;DHT22;8661;45.700;4.880;2023-05-21T10:51:56;26.50;90.60
17092;DHT22;8661;45.700;4.880;2023-05-21T10:54:43;27.00;90.50
17092;DHT22;8661;45.700;4.880;2023-05-21T10:57:25;27.00;90.60
17092;DHT22;8661;45.700;4.880;2023-05-21T10:59:58;27.40;89.90
17092;DHT22;8661;45.700;4.880;2023-05-21T11:02:26;27.80;89.20
17092;DHT22;8661;45.700;4.880;2023-05-21T11:04:58;28.40;88.30
17092;DHT22;8661;45.700;4.880;2023-05-21T11:07:49;28.50;85.50
17092;DHT22;8661;45.700;4.880;2023-05-21T11:10:36;28.70;87.90
17092;DHT22;8661;45.700;4.880;2023-05-21T11:13:23;29.00;85.80
17092;DHT22;8661;45.700;4.880;2023-05-21T11:16:06;28.90;83.60
17092;DHT22;8661;45.700;4.880;2023-05-21T11:18:55;27.50;85.30
17092;DHT22;8661;45.700;4.880;2023-05-21T11:21:23;27.00;87.00
17092;DHT22;8661;45.700;4.880;2023-05-21T11:23:53;26.80;88.30
17092;DHT22;8661;45.700;4.880;2023-05-21T11:26:22;26.80;88.40
17092;DHT22;8661;45.700;4.880;2023-05-21T11:29:05;27.20;88.30
17092;DHT22;8661;45.700;4.880;2023-05-21T11:31:33;28.20;85.40
17092;DHT22;8661;45.700;4.880;2023-05-21T11:34:13;28.40;83.50
17092;DHT22;8661;45.700;4.880;2023-05-21T11:36:45;28.30;83.10
17092;DHT22;8661;45.700;4.880;2023-05-21T11:39:13;28.20;83.80
17092;DHT22;8661;45.700;4.880;2023-05-21T11:41:51;28.10;83.60
17092;DHT22;8661;45.700;4.880;2023-05-21T11:44:37;28.40;82.50
17092;DHT22;8661;45.700;4.880;2023-05-21T11:47:04;28.90;81.30
17092;DHT22;8661;45.700;4.880;2023-05-21T11:49:32;28.60;83.00
17092;DHT22;8661;45.700;4.880;2023-05-21T11:51:59;29.10;81.50
17092;DHT22;8661;45.700;4.880;2023-05-21T11:54:27;29.70;80.30
17092;DHT22;8661;45.700;4.880;2023-05-21T11:56:54;30.10;77.90
17092;DHT22;8661;45.700;4.880;2023-05-21T11:59:22;30.00;78.20
17092;DHT22;8661;45.700;4.880;2023-05-21T12:01:49;30.00;77.90
17092;DHT22;8661;45.700;4.880;2023-05-21T12:04:16;30.20;77.80
17092;DHT22;8661;45.700;4.880;2023-05-21T12:06:43;30.80;76.40
17092;DHT22;8661;45.700;4.880;2023-05-21T12:09:10;30.70;75.60
17092;DHT22;8661;45.700;4.880;2023-05-21T12:11:38;30.50;76.40
17092;DHT22;8661;45.700;4.880;2023-05-21T12:14:09;30.50;75.70
17092;DHT22;8661;45.700;4.880;2023-05-21T12:16:38;29.90;74.10
17092;DHT22;8661;45.700;4.880;2023-05-21T12:19:05;29.70;75.50
17092;DHT22;8661;45.700;4.880;2023-05-21T12:21:33;29.60;76.50
17092;DHT22;8661;45.700;4.880;2023-05-21T12:24:01;29.60;76.80
17092;DHT22;8661;45.700;4.880;2023-05-21T12:26:28;29.50;76.50
17092;DHT22;8661;45.700;4.880;2023-05-21T12:28:57;29.30;76.00
17092;DHT22;8661;45.700;4.880;2023-05-21T12:31:24;28.70;77.10
17092;DHT22;8661;45.700;4.880;2023-05-21T12:33:53;28.70;78.70
17092;DHT22;8661;45.700;4.880;2023-05-21T12:36:21;28.60;79.00
17092;DHT22;8661;45.700;4.880;2023-05-21T12:38:49;28.40;79.30
17092;DHT22;8661;45.700;4.880;2023-05-21T12:41:17;28.00;79.00
17092;DHT22;8661;45.700;4.880;2023-05-21T12:43:44;27.70;80.40
17092;DHT22;8661;45.700;4.880;2023-05-21T12:46:12;27.50;81.60
17092;DHT22;8661;45.700;4.880;2023-05-21T12:48:47;27.30;81.50
17092;DHT22;8661;45.700;4.880;2023-05-21T12:51:15;27.20;81.10
17092;DHT22;8661;45.700;4.880;2023-05-21T12:53:42;27.00;81.60
17092;DHT22;8661;45.700;4.880;2023-05-21T12:56:09;27.00;82.00
17092;DHT22;8661;45.700;4.880;2023-05-21T12:58:36;26.80;82.30
17092;DHT22;8661;45.700;4.880;2023-05-21T13:01:05;26.80;83.20
17092;DHT22;8661;45.700;4.880;2023-05-21T13:03:32;26.70;83.90
17092;DHT22;8661;45.700;4.880;2023-05-21T13:05:59;26.60;84.80
17092;DHT22;8661;45.700;4.880;2023-05-21T13:08:28;26.70;85.60
17092;DHT22;8661;45.700;4.880;2023-05-21T13:10:55;26.50;85.10
17092;DHT22;8661;45.700;4.880;2023-05-21T13:13:21;26.20;85.50
17092;DHT22;8661;45.700;4.880;2023-05-21T13:15:48;26.40;86.60
17092;DHT22;8661;45.700;4.880;2023-05-21T13:18:15;26.40;87.50
17092;DHT22;8661;45.700;4.880;2023-05-21T13:20:42;26.50;86.90
17092;DHT22;8661;45.700;4.880;2023-05-21T13:23:09;26.50;86.80
17092;DHT22;8661;45.700;4.880;2023-05-21T13:25:37;26.50;86.40
17092;DHT22;8661;45.700;4.880;2023-05-21T13:28:04;26.50;87.30
17092;DHT22;8661;45.700;4.880;2023-05-21T13:30:33;26.30;86.80
17092;DHT22;8661;45.700;4.880;2023-05-21T13:33:00;26.20;86.30
17092;DHT22;8661;45.700;4.880;2023-05-21T13:35:26;26.10;86.90
17092;DHT22;8661;45.700;4.880;2023-05-21T13:37:54;26.30;87.90
17092;DHT22;8661;45.700;4.880;2023-05-21T13:40:21;26.40;87.10
17092;DHT22;8661;45.700;4.880;2023-05-21T13:42:50;26.40;86.80
17092;DHT22;8661;45.700;4.880;2023-05-21T13:45:18;26.30;86.70
17092;DHT22;8661;45.700;4.880;2023-05-21T13:47:46;26.40;87.40
17092;DHT22;8661;45.700;4.880;2023-05-21T13:50:14;26.50;86.80
17092;DHT22;8661;45.700;4.880;2023-05-21T13:52:41;26.70;86.50
17092;DHT22;8661;45.700;4.880;2023-05-21T13:55:08;26.70;87.00
17092;DHT22;8661;45.700;4.880;2023-05-21T13:57:36;26.70;87.10
17092;DHT22;8661;45.700;4.880;2023-05-21T14:00:05;26.60;86.20
17092;DHT22;8661;45.700;4.880;2023-05-21T14:02:33;26.60;86.90
17092;DHT22;8661;45.700;4.880;2023-05-21T14:05:00;26.50;86.60
17092;DHT22;8661;45.700;4.880;2023-05-21T14:07:27;26.50;86.40
17092;DHT22;8661;45.700;4.880;2023-05-21T14:09:54;26.40;86.30
17092;DHT22;8661;45.700;4.880;2023-05-21T14:12:21;26.10;87.60
17092;DHT22;8661;45.700;4.880;2023-05-21T14:14:48;25.80;87.60
17092;DHT22;8661;45.700;4.880;2023-05-21T14:17:16;26.00;88.80
17092;DHT22;8661;45.700;4.880;2023-05-21T14:19:43;26.10;88.30
17092;DHT22;8661;45.700;4.880;2023-05-21T14:22:10;26.10;87.70
17092;DHT22;8661;45.700;4.880;2023-05-21T14:24:37;26.10;88.30
17092;DHT22;8661;45.700;4.880;2023-05-21T14:27:04;25.90;88.80
17092;DHT22;8661;45.700;4.880;2023-05-21T14:29:31;25.90;89.20
17092;DHT22;8661;45.700;4.880;2023-05-21T14:31:58;26.10;89.30
17092;DHT22;8661;45.700;4.880;2023-05-21T14:34:27;26.50;88.70
17092;DHT22;8661;45.700;4.880;2023-05-21T14:36:54;26.70;88.80
17092;DHT22;8661;45.700;4.880;2023-05-21T14:39:20;26.80;87.60
17092;DHT22;8661;45.700;4.880;2023-05-21T14:41:50;27.10;87.10
17092;DHT22;8661;45.700;4.880;2023-05-21T14:44:17;27.40;86.20
17092;DHT22;8661;45.700;4.880;2023-05-21T14:46:45;27.60;85.30
17092;DHT22;8661;45.700;4.880;2023-05-21T14:49:12;27.70;84.90
17092;DHT22;8661;45.700;4.880;2023-05-21T14:51:40;27.70;83.30
17092;DHT22;8661;45.700;4.880;2023-05-21T14:54:08;27.70;84.00
17092;DHT22;8661;45.700;4.880;2023-05-21T14:56:35;28.00;83.80
17092;DHT22;8661;45.700;4.880;2023-05-21T14:59:02;28.00;83.70
17092;DHT22;8661;45.700;4.880;2023-05-21T15:01:28;28.00;84.40
17092;DHT22;8661;45.700;4.880;2023-05-21T15:03:55;28.10;84.40
17092;DHT22;8661;45.700;4.880;2023-05-21T15:06:23;27.90;83.90
17092;DHT22;8661;45.700;4.880;2023-05-21T15:08:51;27.60;83.80
17092;DHT22;8661;45.700;4.880;2023-05-21T15:11:18;27.50;84.00
17092;DHT22;8661;45.700;4.880;2023-05-21T15:13:45;27.40;84.30
17092;DHT22;8661;45.700;4.880;2023-05-21T15:16:12;27.60;84.50
17092;DHT22;8661;45.700;4.880;2023-05-21T15:18:39;27.60;84.60
17092;DHT22;8661;45.700;4.880;2023-05-21T15:21:06;27.80;84.70
17092;DHT22;8661;45.700;4.880;2023-05-21T15:23:33;27.60;84.40
17092;DHT22;8661;45.700;4.880;2023-05-21T15:26:01;27.10;85.10
17092;DHT22;8661;45.700;4.880;2023-05-21T15:28:28;26.90;84.90
17092;DHT22;8661;45.700;4.880;2023-05-21T15:30:55;26.90;86.10
17092;DHT22;8661;45.700;4.880;2023-05-21T15:33:22;26.90;86.30
17092;DHT22;8661;45.700;4.880;2023-05-21T15:35:49;26.80;85.90
17092;DHT22;8661;45.700;4.880;2023-05-21T15:38:16;27.00;86.00
17092;DHT22;8661;45.700;4.880;2023-05-21T15:40:42;27.00;85.10
17092;DHT22;8661;45.700;4.880;2023-05-21T15:43:11;26.90;85.40
17092;DHT22;8661;45.700;4.880;2023-05-21T15:45:38;26.90;85.10
17092;DHT22;8661;45.700;4.880;2023-05-21T15:48:05;26.80;85.10
17092;DHT22;8661;45.700;4.880;2023-05-21T15:50:32;26.60;86.00
17092;DHT22;8661;45.700;4.880;2023-05-21T15:53:01;26.40;85.20
17092;DHT22;8661;45.700;4.880;2023-05-21T15:55:31;26.40;85.70